createdAt,value
2019-04-26T00:00:44.169Z,0
2019-04-26T00:14:24.862Z,0
2019-04-26T00:15:16.992Z,0
2019-04-26T00:16:12.731Z,0
2019-04-26T00:17:13.894Z,0
2019-04-26T00:18:08.936Z,0
2019-04-26T00:21:10.595Z,0
2019-04-26T00:22:04.980Z,0
2019-04-26T00:22:57.464Z,0
2019-04-26T00:25:37.739Z,0
2019-04-26T00:26:28.780Z,0
2019-04-26T00:27:19.167Z,0
2019-04-26T00:28:11.450Z,0
2019-04-26T00:29:00.608Z,0
2019-04-26T00:35:03.169Z,0
2019-04-26T00:35:54.520Z,0
2019-04-26T00:36:50.480Z,0
2019-04-26T00:37:39.701Z,0
2019-04-26T00:38:20.367Z,0
2019-04-26T00:39:00.463Z,0
2019-04-26T00:39:41.414Z,0
2019-04-26T00:41:02.403Z,0
2019-04-26T00:41:42.837Z,0
2019-04-26T00:42:23.353Z,0
2019-04-26T00:49:08.476Z,0
2019-04-26T00:49:48.892Z,0
2019-04-26T00:50:29.328Z,0
2019-04-26T00:51:09.811Z,0
2019-04-26T00:51:50.250Z,0
2019-04-26T00:52:30.739Z,0
2019-04-26T00:53:11.187Z,0
2019-04-26T00:53:51.601Z,0
2019-04-26T00:54:32.000Z,0
2019-04-26T00:55:14.115Z,0
2019-04-26T00:55:52.835Z,0
2019-04-26T00:56:33.286Z,0
2019-04-26T00:59:18.406Z,0
2019-04-26T00:59:58.667Z,0
2019-04-26T01:00:48.514Z,0
2019-04-26T01:01:30.221Z,0
2019-04-26T01:02:13.007Z,0
2019-04-26T01:05:05.943Z,0
2019-04-26T01:07:44.113Z,0
2019-04-26T01:08:31.804Z,0
2019-04-26T01:09:23.614Z,0
2019-04-26T01:10:12.042Z,0
2019-04-26T01:11:02.835Z,0
2019-04-26T01:11:51.542Z,0
2019-04-26T01:12:42.706Z,0
2019-04-26T01:13:32.183Z,0
2019-04-26T01:14:28.695Z,0
2019-04-26T01:15:19.931Z,0
2019-04-26T01:16:18.341Z,0
2019-04-26T01:27:23.348Z,0
2019-04-26T01:28:12.001Z,0
2019-04-26T01:29:06.410Z,0
2019-04-26T01:29:53.986Z,0
2019-04-26T01:30:43.070Z,0
2019-04-26T01:31:33.036Z,0
2019-04-26T01:33:32.107Z,0
2019-04-26T01:39:10.573Z,0
2019-04-26T01:40:05.636Z,0
2019-04-26T01:40:59.374Z,0
2019-04-26T02:16:49.704Z,0
2019-04-26T02:17:45.762Z,0
2019-04-26T02:21:40.476Z,0
2019-04-26T02:22:29.908Z,0
2019-04-26T02:23:20.932Z,0
2019-04-26T02:24:09.190Z,0
2019-04-26T02:24:57.604Z,0
2019-04-26T02:25:49.817Z,0
2019-04-26T02:26:38.987Z,0
2019-04-26T02:27:30.548Z,0
2019-04-26T02:35:57.770Z,0
2019-04-26T02:36:57.530Z,0
2019-04-26T02:37:36.899Z,0
2019-04-26T02:38:25.831Z,0
2019-04-26T02:39:14.519Z,0
2019-04-26T02:40:06.515Z,0
2019-04-26T02:40:55.483Z,0
2019-04-26T02:41:44.568Z,0
2019-04-26T02:42:34.748Z,0
2019-04-26T02:43:24.472Z,0
2019-04-26T02:44:12.947Z,0
2019-04-26T02:45:04.202Z,0
2019-04-26T02:45:52.670Z,0
2019-04-26T02:46:41.426Z,0
2019-04-26T02:47:33.078Z,0
2019-04-26T02:48:24.078Z,0
2019-04-26T02:50:04.122Z,0
2019-04-26T02:50:54.137Z,0
2019-04-26T02:54:33.248Z,0
2019-04-26T02:57:11.516Z,0
2019-04-26T02:57:58.802Z,0
2019-04-26T02:58:39.109Z,0
2019-04-26T03:46:59.517Z,0
2019-04-26T03:49:33.613Z,0
2019-04-26T03:50:25.321Z,0
2019-04-26T03:51:18.102Z,0
2019-04-26T03:52:08.037Z,0
2019-04-26T03:57:42.540Z,0
2019-04-26T03:58:39.855Z,0
2019-04-26T04:02:43.349Z,0
2019-04-26T04:03:42.089Z,0
2019-04-26T04:04:32.022Z,0
2019-04-26T04:05:29.222Z,4
2019-04-26T04:06:20.080Z,4
2019-04-26T04:10:11.202Z,4
2019-04-26T04:12:22.022Z,4
2019-04-26T05:21:22.038Z,128
2019-04-26T05:22:26.038Z,136
2019-04-26T05:23:30.209Z,144
2019-04-26T05:24:32.869Z,152
2019-04-26T05:25:30.768Z,152
2019-04-26T05:26:27.610Z,152
2019-04-26T05:27:41.246Z,156
2019-04-26T05:28:39.443Z,160
2019-04-26T05:29:41.110Z,168
2019-04-26T05:30:38.547Z,172
2019-04-26T05:31:42.319Z,168
2019-04-26T05:32:47.188Z,168
2019-04-26T05:33:48.835Z,168
2019-04-26T05:34:49.030Z,172
2019-04-26T05:35:49.177Z,172
2019-04-26T05:36:52.722Z,180
2019-04-26T05:37:55.471Z,196
2019-04-26T05:39:00.366Z,212
2019-04-26T05:40:02.080Z,228
2019-04-26T05:41:07.582Z,232
2019-04-26T05:42:20.297Z,228
2019-04-26T05:43:43.685Z,228
2019-04-26T05:49:45.770Z,248
2019-04-26T06:05:08.646Z,332
2019-04-26T06:06:05.042Z,324
2019-04-26T06:07:01.328Z,316
2019-04-26T06:07:59.488Z,308
2019-04-26T06:08:59.523Z,300
2019-04-26T06:10:01.199Z,296
2019-04-26T06:11:01.185Z,296
2019-04-26T06:12:06.435Z,312
2019-04-26T06:13:03.850Z,336
2019-04-26T06:13:57.780Z,368
2019-04-26T06:14:53.051Z,408
2019-04-26T06:15:48.829Z,444
2019-04-26T06:16:44.727Z,456
2019-04-26T06:17:39.884Z,456
2019-04-26T06:18:40.328Z,460
2019-04-26T06:21:16.273Z,448
2019-04-26T06:22:11.080Z,448
2019-04-26T06:23:06.742Z,468
2019-04-26T06:24:07.823Z,516
2019-04-26T06:25:07.483Z,604
2019-04-26T06:26:05.402Z,676
2019-04-26T06:27:13.106Z,716
2019-04-26T06:28:03.527Z,696
2019-04-26T06:29:01.524Z,612
2019-04-26T06:29:59.148Z,528
2019-04-26T06:30:56.989Z,476
2019-04-26T06:31:54.543Z,452
2019-04-26T06:32:57.267Z,448
2019-04-26T06:34:03.542Z,464
2019-04-26T06:35:07.369Z,484
2019-04-26T06:36:04.616Z,508
2019-04-26T06:37:02.251Z,532
2019-04-26T06:38:01.813Z,548
2019-04-26T06:38:55.013Z,564
2019-04-26T06:39:53.375Z,572
2019-04-26T06:40:49.969Z,580
2019-04-26T06:41:46.662Z,584
2019-04-26T06:46:16.341Z,608
2019-04-26T06:53:13.427Z,536
2019-04-26T06:54:28.537Z,504
2019-04-26T06:57:47.809Z,456
2019-04-26T06:59:41.043Z,452
2019-04-26T07:00:22.485Z,456
2019-04-26T07:01:03.810Z,456
2019-04-26T07:01:44.806Z,464
2019-04-26T07:02:25.583Z,472
2019-04-26T07:03:06.349Z,480
2019-04-26T07:06:35.018Z,528
2019-04-26T07:07:13.413Z,528
2019-04-26T07:07:54.243Z,520
2019-04-26T07:11:20.999Z,532
2019-04-26T07:12:10.300Z,536
2019-04-26T07:12:51.631Z,540
2019-04-26T07:13:32.423Z,552
2019-04-26T07:14:12.819Z,568
2019-04-26T07:14:53.214Z,580
2019-04-26T07:15:33.735Z,592
2019-04-26T07:16:23.109Z,612
2019-04-26T07:17:02.829Z,624
2019-04-26T07:17:43.227Z,636
2019-04-26T07:18:23.673Z,640
2019-04-26T07:19:04.154Z,648
2019-04-26T07:19:44.618Z,656
2019-04-26T07:20:25.346Z,672
2019-04-26T07:21:06.900Z,688
2019-04-26T07:22:01.996Z,712
2019-04-26T07:22:41.697Z,728
2019-04-26T07:25:10.880Z,772
2019-04-26T07:26:17.270Z,796
2019-04-26T07:27:22.048Z,820
2019-04-26T07:28:18.705Z,828
2019-04-26T07:29:12.244Z,816
2019-04-26T07:32:02.147Z,744
2019-04-26T07:33:08.428Z,740
2019-04-26T07:34:07.638Z,736
2019-04-26T07:36:58.325Z,772
2019-04-26T07:37:38.629Z,780
2019-04-26T07:38:19.070Z,780
2019-04-26T07:39:11.437Z,776
2019-04-26T07:42:29.593Z,860
2019-04-26T07:43:28.158Z,900
2019-04-26T07:48:59.873Z,1132
2019-04-26T07:50:03.421Z,1148
2019-04-26T07:51:06.445Z,1172
2019-04-26T07:52:18.169Z,1200
2019-04-26T07:53:17.117Z,1220
2019-04-26T07:54:34.096Z,1228
2019-04-26T07:55:45.664Z,1232
2019-04-26T07:56:52.427Z,1268
2019-04-26T07:57:54.748Z,1296
2019-04-26T07:59:10.989Z,1300
2019-04-26T08:00:18.577Z,1316
2019-04-26T08:01:22.327Z,1316
2019-04-26T08:02:21.732Z,1324
2019-04-26T08:05:34.335Z,1440
2019-04-26T08:09:07.504Z,1616
2019-04-26T08:09:59.460Z,1644
2019-04-26T08:10:31.760Z,1636
2019-04-26T08:11:12.897Z,1600
2019-04-26T08:13:54.735Z,1592
2019-04-26T08:14:35.226Z,1588
2019-04-26T08:15:15.691Z,1576
2019-04-26T08:15:57.006Z,1552
2019-04-26T08:16:41.063Z,1524
2019-04-26T08:20:09.033Z,1304
2019-04-26T08:20:48.270Z,1268
2019-04-26T08:22:15.830Z,1232
2019-04-26T08:23:41.571Z,1216
2019-04-26T08:24:15.465Z,1200
2019-04-26T08:24:57.588Z,1188
2019-04-26T08:25:38.009Z,1172
2019-04-26T08:26:18.555Z,1156
2019-04-26T08:27:08.486Z,1140
2019-04-26T08:27:39.330Z,1124
2019-04-26T08:39:53.012Z,896
2019-04-26T08:40:33.625Z,900
2019-04-26T08:41:14.242Z,912
2019-04-26T08:41:55.039Z,924
2019-04-26T08:42:36.587Z,936
2019-04-26T08:43:18.119Z,948
2019-04-26T08:48:01.991Z,1040
2019-04-26T08:48:42.418Z,1052
2019-04-26T08:49:23.899Z,1052
2019-04-26T08:50:03.494Z,1048
2019-04-26T08:50:45.850Z,1040
2019-04-26T08:51:25.183Z,1028
2019-04-26T08:52:14.102Z,1024
2019-04-26T08:57:33.013Z,1116
2019-04-26T08:58:15.150Z,1100
2019-04-26T08:58:55.149Z,1084
2019-04-26T08:59:35.883Z,1072
2019-04-26T09:00:18.625Z,1072
2019-04-26T09:03:43.302Z,1128
2019-04-26T09:04:23.530Z,1140
2019-04-26T09:05:06.097Z,1144
2019-04-26T09:07:07.626Z,1132
2019-04-26T09:07:48.108Z,1132
2019-04-26T09:08:29.630Z,1144
2019-04-26T09:09:10.625Z,1156
2019-04-26T09:10:32.626Z,1192
2019-04-26T09:11:59.339Z,1272
2019-04-26T09:12:33.319Z,1328
2019-04-26T09:13:13.791Z,1400
2019-04-26T09:13:54.220Z,1464
2019-04-26T09:14:34.915Z,1516
2019-04-26T09:15:15.359Z,1552
2019-04-26T09:15:56.008Z,1596
2019-04-26T09:16:36.469Z,1608
2019-04-26T09:17:16.877Z,1612
2019-04-26T09:17:57.344Z,1640
2019-04-26T09:18:43.310Z,1684
2019-04-26T09:22:43.171Z,1996
2019-04-26T09:23:23.986Z,2036
2019-04-26T09:24:04.909Z,2064
2019-04-26T09:24:45.463Z,2088
2019-04-26T09:25:25.689Z,2092
2019-04-26T09:26:08.479Z,2112
2019-04-26T09:26:48.473Z,2148
2019-04-26T09:27:27.355Z,2200
2019-04-26T09:28:08.731Z,2288
2019-04-26T09:34:56.358Z,2228
2019-04-26T09:35:51.684Z,2016
2019-04-26T09:41:09.066Z,1868
2019-04-26T09:42:09.826Z,2116
2019-04-26T09:43:14.834Z,2352
2019-04-26T09:44:20.687Z,2400
2019-04-26T09:49:41.112Z,1920
2019-04-26T09:50:20.201Z,1844
2019-04-26T09:51:03.049Z,1812
2019-04-26T09:51:45.229Z,1808
2019-04-26T09:52:25.802Z,1800
2019-04-26T09:53:06.173Z,1788
2019-04-26T09:53:46.653Z,1780
2019-04-26T09:54:27.081Z,1772
2019-04-26T09:55:07.499Z,1772
2019-04-26T09:55:49.579Z,1764
2019-04-26T10:02:36.664Z,1584
2019-04-26T10:03:16.841Z,1620
2019-04-26T10:03:57.891Z,1672
2019-04-26T10:06:38.119Z,1936
2019-04-26T10:07:18.341Z,1988
2019-04-26T10:07:58.753Z,2028
2019-04-26T10:08:39.169Z,2048
2019-04-26T10:09:21.131Z,2048
2019-04-26T10:10:00.926Z,2020
2019-04-26T10:10:40.406Z,1976
2019-04-26T10:11:20.909Z,1940
2019-04-26T10:12:01.226Z,1932
2019-04-26T10:12:41.654Z,1948
2019-04-26T10:13:22.119Z,1984
2019-04-26T10:14:02.497Z,1996
2019-04-26T10:19:31.619Z,1888
2019-04-26T10:20:11.314Z,1840
2019-04-26T10:20:51.712Z,1796
2019-04-26T10:21:32.142Z,1760
2019-04-26T10:22:12.550Z,1720
2019-04-26T10:22:53.029Z,1700
2019-04-26T10:23:33.475Z,1704
2019-04-26T11:07:18.279Z,3072
2019-04-26T11:07:58.167Z,3044
2019-04-26T11:08:38.585Z,3016
2019-04-26T11:09:19.023Z,2976
2019-04-26T11:09:59.418Z,2800
2019-04-26T11:10:48.292Z,2780
2019-04-26T11:11:20.274Z,2732
2019-04-26T11:12:00.644Z,2644
2019-04-26T11:12:43.290Z,2616
2019-04-26T11:13:21.469Z,2604
2019-04-26T11:14:01.950Z,2664
2019-04-26T11:14:44.366Z,2740
2019-04-26T11:17:27.859Z,2488
2019-04-26T11:18:08.235Z,2420
2019-04-26T11:18:48.662Z,2364
2019-04-26T11:19:31.893Z,2384
2019-04-26T11:20:10.299Z,2408
2019-04-26T11:20:49.931Z,2404
2019-04-26T11:21:30.306Z,2340
2019-04-26T11:22:10.913Z,2264
2019-04-26T11:22:51.141Z,2256
2019-04-26T11:24:15.098Z,2228
2019-04-26T11:30:57.869Z,2572
2019-04-26T11:31:38.234Z,2532
2019-04-26T11:32:18.605Z,2484
2019-04-26T11:32:59.180Z,2464
2019-04-26T11:33:44.790Z,2404
2019-04-26T11:34:23.350Z,2352
2019-04-26T11:35:00.447Z,2288
2019-04-26T11:35:40.775Z,2240
2019-04-26T11:36:21.223Z,2252
2019-04-26T11:37:01.552Z,2320
2019-04-26T11:37:42.075Z,2416
2019-04-26T11:38:26.749Z,2488
2019-04-26T11:43:48.969Z,2452
2019-04-26T11:44:28.528Z,2464
2019-04-26T11:45:10.640Z,2532
2019-04-26T11:45:49.249Z,2624
2019-04-26T11:46:30.289Z,2708
2019-04-26T11:47:09.576Z,2752
2019-04-26T11:47:56.067Z,2760
2019-04-26T11:48:30.714Z,2700
2019-04-26T11:49:11.036Z,2616
2019-04-26T11:49:51.411Z,2508
2019-04-26T11:50:31.856Z,2444
2019-04-26T11:57:57.778Z,2224
2019-04-26T11:58:37.856Z,2232
2019-04-26T11:59:18.417Z,2232
2019-04-26T12:00:01.301Z,2264
2019-04-26T12:00:39.102Z,2272
2019-04-26T12:01:19.439Z,2280
2019-04-26T12:01:59.835Z,2288
2019-04-26T12:02:40.215Z,2276
2019-04-26T12:03:21.109Z,2272
2019-04-26T12:04:01.063Z,2336
2019-04-26T12:04:41.423Z,2396
2019-04-26T12:05:21.819Z,2432
2019-04-26T12:06:02.195Z,2424
2019-04-26T12:14:19.538Z,2716
2019-04-26T12:14:49.536Z,2816
2019-04-26T12:16:52.714Z,2792
2019-04-26T12:17:31.067Z,2728
2019-04-26T12:18:11.443Z,2688
2019-04-26T12:18:53.049Z,2648
2019-04-26T12:24:57.285Z,2892
2019-04-26T12:25:38.643Z,2900
2019-04-26T12:26:21.481Z,2780
2019-04-26T12:26:58.366Z,2756
2019-04-26T12:27:38.893Z,2744
2019-04-26T12:28:19.197Z,2776
2019-04-26T12:28:59.551Z,2852
2019-04-26T12:29:39.979Z,2896
2019-04-26T12:30:23.793Z,2876
2019-04-26T12:31:00.728Z,2808
2019-04-26T12:31:41.350Z,2792
2019-04-26T12:32:21.732Z,2828
2019-04-26T12:33:02.333Z,2844
2019-04-26T12:37:50.562Z,3280
2019-04-26T12:38:28.432Z,3200
2019-04-26T12:39:07.784Z,3180
2019-04-26T12:39:48.127Z,3100
2019-04-26T12:40:28.546Z,3016
2019-04-26T12:41:11.408Z,2988
2019-04-26T12:41:49.358Z,2988
2019-04-26T12:42:29.738Z,2640
2019-04-26T12:43:11.157Z,2568
2019-04-26T12:43:54.386Z,2732
2019-04-26T12:44:32.292Z,2720
2019-04-26T12:50:46.196Z,2628
2019-04-26T12:51:47.114Z,2556
2019-04-26T12:52:38.757Z,2432
2019-04-26T12:53:36.163Z,2280
2019-04-26T12:56:21.537Z,2104
2019-04-26T12:57:05.774Z,2192
2019-04-26T12:57:42.640Z,2196
2019-04-26T12:58:23.072Z,2228
2019-04-26T12:59:03.457Z,2288
2019-04-26T12:59:44.624Z,2332
2019-04-26T13:00:24.249Z,2368
2019-04-26T13:01:07.813Z,2380
2019-04-26T13:01:46.311Z,2372
2019-04-26T13:02:25.439Z,2352
2019-04-26T13:03:05.915Z,2320
2019-04-26T13:03:46.271Z,2288
2019-04-26T13:04:35.745Z,2304
2019-04-26T13:09:52.601Z,2448
2019-04-26T13:10:35.376Z,2400
2019-04-26T13:11:15.143Z,2352
2019-04-26T13:11:56.453Z,2276
2019-04-26T13:12:34.245Z,2588
2019-04-26T13:13:14.672Z,2260
2019-04-26T13:13:55.376Z,2276
2019-04-26T13:14:38.632Z,2620
2019-04-26T13:15:16.772Z,2640
2019-04-26T13:15:56.568Z,2468
2019-04-26T13:20:43.112Z,2300
2019-04-26T13:21:23.768Z,2416
2019-04-26T13:22:04.074Z,2380
2019-04-26T13:22:46.081Z,2344
2019-04-26T13:23:25.289Z,2328
2019-04-26T13:24:06.171Z,2312
2019-04-26T13:24:45.691Z,2296
2019-04-26T13:25:26.745Z,2252
2019-04-26T13:26:06.480Z,2200
2019-04-26T13:26:46.888Z,1988
2019-04-26T13:34:52.257Z,2512
2019-04-26T13:35:32.589Z,2576
2019-04-26T13:36:13.044Z,2640
2019-04-26T13:36:53.428Z,2568
2019-04-26T13:37:35.621Z,2708
2019-04-26T13:38:14.220Z,2736
2019-04-26T13:38:54.881Z,2724
2019-04-26T13:39:36.220Z,2676
2019-04-26T13:40:16.662Z,2684
2019-04-26T13:40:59.512Z,2700
2019-04-26T13:44:22.068Z,2772
2019-04-26T13:45:02.513Z,2760
2019-04-26T13:45:42.908Z,2724
2019-04-26T13:46:23.424Z,2688
2019-04-26T13:47:07.873Z,2684
2019-04-26T13:47:44.384Z,2668
2019-04-26T13:48:24.704Z,2628
2019-04-26T13:49:06.825Z,2620
2019-04-26T13:51:51.932Z,2164
2019-04-26T13:52:34.236Z,2308
2019-04-26T13:53:14.662Z,2348
2019-04-26T13:53:55.997Z,2340
2019-04-26T13:54:36.687Z,2268
2019-04-26T13:58:20.451Z,1792
2019-04-26T13:58:59.842Z,1780
2019-04-26T13:59:40.016Z,1816
2019-04-26T14:00:20.411Z,1804
2019-04-26T14:01:00.763Z,1756
2019-04-26T14:01:41.148Z,1728
2019-04-26T14:09:07.418Z,1820
2019-04-26T14:09:48.883Z,1776
2019-04-26T14:10:29.147Z,1756
2019-04-26T14:11:09.505Z,1492
2019-04-26T14:11:50.027Z,1724
2019-04-26T14:12:30.402Z,1788
2019-04-26T14:13:10.789Z,1760
2019-04-26T14:13:51.141Z,1928
2019-04-26T14:14:34.104Z,1880
2019-04-26T14:19:18.635Z,1888
2019-04-26T14:20:00.434Z,1912
2019-04-26T14:20:41.398Z,1964
2019-04-26T14:21:21.250Z,1980
2019-04-26T14:22:07.019Z,1932
2019-04-26T14:26:07.088Z,1888
2019-04-26T14:26:47.288Z,1832
2019-04-26T14:27:28.031Z,1892
2019-04-26T14:28:08.455Z,1924
2019-04-26T14:30:22.376Z,1796
2019-04-26T14:31:03.028Z,1760
2019-04-26T14:31:43.543Z,1752
2019-04-26T14:32:24.288Z,1744
2019-04-26T14:33:04.430Z,1740
2019-04-26T14:33:44.625Z,1724
2019-04-26T14:34:25.090Z,1740
2019-04-26T14:35:05.444Z,1740
2019-04-26T14:35:50.303Z,1748
2019-04-26T14:36:27.920Z,1776
2019-04-26T14:38:39.215Z,2016
2019-04-26T14:39:20.036Z,2032
2019-04-26T14:42:03.198Z,2088
2019-04-26T14:42:46.953Z,2032
2019-04-26T14:43:25.224Z,1988
2019-04-26T14:44:15.060Z,1724
2019-04-26T14:44:49.359Z,1908
2019-04-26T14:51:31.933Z,1700
2019-04-26T14:52:13.052Z,1728
2019-04-26T14:52:53.081Z,1728
2019-04-26T14:55:07.396Z,1696
2019-04-26T14:55:51.176Z,1676
2019-04-26T14:56:29.208Z,1648
2019-04-26T14:57:15.476Z,1648
2019-04-26T14:57:51.163Z,1660
2019-04-26T14:58:33.268Z,1664
2019-04-26T14:59:12.186Z,1656
2019-04-26T15:04:36.690Z,1488
2019-04-26T15:05:17.603Z,1440
2019-04-26T15:05:58.131Z,1440
2019-04-26T15:06:38.602Z,1364
2019-04-26T15:07:19.441Z,1472
2019-04-26T15:08:03.658Z,1208
2019-04-26T15:08:45.149Z,1236
2019-04-26T15:15:53.839Z,1308
2019-04-26T15:16:35.009Z,1352
2019-04-26T15:17:19.686Z,1448
2019-04-26T15:17:59.351Z,1424
2019-04-26T15:18:37.936Z,1344
2019-04-26T15:19:59.126Z,1320
2019-04-26T15:20:41.309Z,1200
2019-04-26T15:22:10.235Z,1336
2019-04-26T15:22:48.524Z,1284
2019-04-26T15:23:26.643Z,1180
2019-04-26T15:24:07.118Z,1156
2019-04-26T15:24:48.018Z,1352
2019-04-26T15:25:29.137Z,1324
2019-04-26T15:26:09.536Z,1284
2019-04-26T15:29:34.796Z,1448
2019-04-26T15:30:15.269Z,1312
2019-04-26T15:30:55.659Z,1340
2019-04-26T15:31:35.965Z,1604
2019-04-26T15:32:17.393Z,1624
2019-04-26T15:32:57.646Z,1688
2019-04-26T15:33:38.125Z,1728
2019-04-26T15:34:19.208Z,1620
2019-04-26T15:35:00.021Z,1400
2019-04-26T15:35:39.237Z,1528
2019-04-26T15:36:19.701Z,1492
2019-04-26T15:44:28.069Z,1632
2019-04-26T15:45:05.833Z,1704
2019-04-26T15:45:46.297Z,1728
2019-04-26T15:46:26.635Z,1648
2019-04-26T15:47:07.189Z,1524
2019-04-26T15:47:47.554Z,1316
2019-04-26T15:48:27.996Z,1284
2019-04-26T15:49:09.566Z,1260
2019-04-26T15:49:48.721Z,1232
2019-04-26T15:50:30.997Z,1200
2019-04-26T15:53:14.856Z,1072
2019-04-26T15:53:55.024Z,1056
2019-04-26T15:54:35.466Z,1048
2019-04-26T15:55:16.016Z,1044
2019-04-26T15:55:56.454Z,1044
2019-04-26T15:56:36.863Z,1036
2019-04-26T15:57:17.301Z,1024
2019-04-26T15:57:57.706Z,1024
2019-04-26T15:58:42.481Z,1012
2019-04-26T15:59:22.282Z,984
2019-04-26T15:59:59.237Z,956
2019-04-26T16:00:39.366Z,928
2019-04-26T16:01:19.683Z,912
2019-04-26T16:08:04.735Z,896
2019-04-26T16:08:45.987Z,896
2019-04-26T16:09:26.322Z,900
2019-04-26T16:10:06.738Z,912
2019-04-26T16:10:47.125Z,1004
2019-04-26T16:11:29.059Z,936
2019-04-26T16:12:09.529Z,916
2019-04-26T16:12:49.883Z,916
2019-04-26T16:17:36.121Z,852
2019-04-26T16:18:17.342Z,836
2019-04-26T16:18:57.089Z,820
2019-04-26T16:19:35.847Z,816
2019-04-26T16:20:16.318Z,816
2019-04-26T16:21:05.754Z,800
2019-04-26T16:21:48.112Z,784
2019-04-26T16:22:29.986Z,764
2019-04-26T16:23:07.763Z,744
2019-04-26T16:23:51.879Z,728
2019-04-26T16:24:29.107Z,712
2019-04-26T16:25:09.030Z,704
2019-04-26T16:25:49.482Z,688
2019-04-26T16:26:32.889Z,664
2019-04-26T16:27:32.270Z,620
2019-04-26T16:28:09.341Z,588
2019-04-26T16:28:49.072Z,560
2019-04-26T16:29:29.452Z,540
2019-04-26T16:30:12.784Z,528
2019-04-26T17:10:38.016Z,344
2019-04-26T17:11:25.912Z,356
2019-04-26T17:12:04.674Z,376
2019-04-26T17:12:46.179Z,368
2019-04-26T17:13:29.889Z,384
2019-04-26T17:14:10.043Z,408
2019-04-26T17:16:53.428Z,408
2019-04-26T17:17:35.750Z,396
2019-04-26T17:18:19.279Z,388
2019-04-26T17:18:59.472Z,388
2019-04-26T17:22:03.714Z,436
2019-04-26T17:22:51.613Z,436
2019-04-26T17:23:52.964Z,424
2019-04-26T17:24:32.341Z,416
2019-04-26T17:25:12.748Z,428
2019-04-26T17:25:55.099Z,452
2019-04-26T17:26:36.385Z,468
2019-04-26T17:27:16.829Z,472
2019-04-26T17:27:59.184Z,476
2019-04-26T17:29:25.924Z,484
2019-04-26T17:30:06.270Z,492
2019-04-26T17:30:47.586Z,504
2019-04-26T17:32:53.562Z,536
2019-04-26T17:33:33.003Z,540
2019-04-26T17:34:13.399Z,540
2019-04-26T17:34:54.460Z,544
2019-04-26T17:35:36.593Z,544
2019-04-26T17:36:17.256Z,536
2019-04-26T17:37:09.816Z,532
2019-04-26T17:41:16.093Z,532
2019-04-26T17:41:57.470Z,528
2019-04-26T17:44:57.494Z,532
2019-04-26T17:45:36.208Z,532
2019-04-26T17:46:18.150Z,544
2019-04-26T17:46:59.611Z,544
2019-04-26T17:47:40.095Z,552
2019-04-26T17:48:17.612Z,556
2019-04-26T17:49:11.086Z,564
2019-04-26T17:50:50.840Z,568
2019-04-26T17:52:12.547Z,564
2019-04-26T17:52:53.920Z,564
2019-04-26T17:53:34.372Z,560
2019-04-26T17:54:41.343Z,552
2019-04-26T17:54:55.690Z,540
2019-04-26T17:55:36.120Z,528
2019-04-26T17:56:16.636Z,528
2019-04-26T18:06:00.834Z,436
2019-04-26T18:06:40.295Z,424
2019-04-26T18:07:39.501Z,416
2019-04-26T18:11:59.949Z,352
2019-04-26T18:30:44.756Z,124
2019-04-26T18:31:33.590Z,116
2019-04-26T18:34:40.493Z,88
2019-04-26T18:35:20.039Z,88
2019-04-26T18:36:01.496Z,80
2019-04-26T18:36:42.985Z,76
2019-04-26T18:37:23.076Z,72
2019-04-26T18:38:03.714Z,68
2019-04-26T18:38:48.441Z,64
2019-04-26T18:46:48.528Z,32
2019-04-26T18:47:29.191Z,28
2019-04-26T18:48:09.572Z,28
2019-04-26T18:48:53.442Z,28
2019-04-26T18:49:32.944Z,24
2019-04-26T18:50:12.862Z,24
2019-04-26T18:50:53.274Z,20
2019-04-26T18:56:58.084Z,8
2019-04-26T18:57:38.525Z,8
2019-04-26T18:58:19.050Z,8
2019-04-26T18:58:59.507Z,8
2019-04-26T18:59:44.658Z,4
2019-04-26T19:00:21.456Z,4
2019-04-26T19:01:05.087Z,4
2019-04-26T19:03:18.252Z,4
2019-04-26T19:04:00.252Z,4
2019-04-26T19:04:41.667Z,4
2019-04-26T19:05:24.596Z,0
2019-04-26T19:06:02.464Z,0
2019-04-26T19:06:42.147Z,4
2019-04-26T19:07:31.246Z,4
2019-04-26T19:08:02.599Z,4
2019-04-26T19:08:46.171Z,0
2019-04-26T19:14:11.196Z,0
2019-04-26T19:15:27.289Z,0
2019-04-26T19:16:10.443Z,0
2019-04-26T19:16:50.198Z,0
2019-04-26T19:17:30.065Z,0
2019-04-26T19:18:08.939Z,0
2019-04-26T19:18:49.375Z,0
2019-04-26T19:19:31.412Z,0
2019-04-26T19:20:11.521Z,0
2019-04-26T19:21:32.164Z,0
2019-04-26T19:22:15.421Z,0
2019-04-26T19:22:53.158Z,0
2019-04-26T19:31:37.404Z,0
2019-04-26T19:32:21.245Z,0
2019-04-26T19:32:58.441Z,0
2019-04-26T19:33:38.860Z,0
2019-04-26T19:34:19.295Z,0
2019-04-26T19:35:00.570Z,0
2019-04-26T19:35:43.903Z,0
2019-04-26T19:36:22.559Z,0
2019-04-26T19:37:03.229Z,0
2019-04-26T19:37:43.004Z,0
2019-04-26T19:47:07.282Z,0
2019-04-26T19:47:47.736Z,0
2019-04-26T19:48:28.088Z,0
2019-04-26T19:49:08.479Z,0
2019-04-26T19:49:48.899Z,0
2019-04-26T19:50:29.446Z,0
2019-04-26T19:51:11.327Z,0
2019-04-26T19:58:43.064Z,0
2019-04-26T19:59:27.482Z,0
2019-04-26T20:00:07.996Z,0
2019-04-26T20:00:46.795Z,0
2019-04-26T20:01:25.952Z,0
2019-04-26T20:02:06.150Z,0
2019-04-26T20:02:46.563Z,0
2019-04-26T20:03:27.017Z,0
2019-04-26T20:04:07.413Z,0
2019-04-26T20:04:47.765Z,0
2019-04-26T20:05:28.181Z,0
2019-04-26T20:13:33.311Z,0
2019-04-26T20:14:13.750Z,0
2019-04-26T20:14:58.379Z,0
2019-04-26T20:15:35.731Z,0
2019-04-26T20:16:16.125Z,0
2019-04-26T20:16:56.456Z,0
2019-04-26T20:17:37.027Z,0
2019-04-26T20:18:17.797Z,0
2019-04-26T20:18:57.834Z,0
2019-04-26T20:19:38.323Z,0
2019-04-26T20:26:23.455Z,0
2019-04-26T20:27:04.405Z,0
2019-04-26T20:27:44.739Z,0
2019-04-26T20:28:25.121Z,0
2019-04-26T20:33:52.059Z,0
2019-04-26T20:34:39.052Z,0
2019-04-26T20:35:25.514Z,0
2019-04-26T20:36:01.837Z,0
2019-04-26T20:36:48.919Z,0
2019-04-26T20:37:28.385Z,0
2019-04-26T20:39:31.669Z,0
2019-04-26T20:40:19.951Z,0
2019-04-26T20:40:53.296Z,0
2019-04-26T20:41:32.666Z,0
2019-04-26T20:42:12.078Z,0
2019-04-26T20:42:53.941Z,0
2019-04-26T20:43:36.242Z,0
2019-04-26T20:44:12.886Z,0
2019-04-26T20:44:53.756Z,0
2019-04-26T20:45:41.171Z,0
2019-04-26T20:46:15.597Z,0
2019-04-26T20:46:54.367Z,0
2019-04-26T20:53:41.179Z,0
2019-04-26T20:54:19.796Z,0
2019-04-26T20:55:00.246Z,0
2019-04-26T20:55:42.608Z,0
2019-04-26T20:56:22.472Z,0
2019-04-26T20:57:01.860Z,0
2019-04-26T20:57:44.523Z,0
2019-04-26T20:58:22.416Z,0
2019-04-26T20:59:02.807Z,0
2019-04-26T20:59:43.344Z,0
2019-04-26T21:00:24.261Z,0
2019-04-26T21:07:50.024Z,0
2019-04-26T21:08:29.645Z,0
2019-04-26T21:09:11.339Z,0
2019-04-26T21:09:50.500Z,0
2019-04-26T21:10:32.353Z,0
2019-04-26T21:11:13.558Z,0
2019-04-26T21:11:51.783Z,0
2019-04-26T21:12:31.998Z,0
2019-04-26T21:13:12.423Z,0
2019-04-26T21:13:52.866Z,0
2019-04-26T21:14:33.223Z,0
2019-04-26T21:15:15.624Z,0
2019-04-26T21:19:59.226Z,0
2019-04-26T21:20:39.641Z,0
2019-04-26T21:21:21.634Z,0
2019-04-26T21:22:02.501Z,0
2019-04-26T21:22:41.907Z,0
2019-04-26T21:23:22.238Z,0
2019-04-26T21:24:05.422Z,0
2019-04-26T21:24:42.031Z,0
2019-04-26T21:25:22.431Z,0
2019-04-26T21:28:42.583Z,0
2019-04-26T21:29:24.391Z,0
2019-04-26T21:30:04.052Z,0
2019-04-26T21:30:44.470Z,0
2019-04-26T21:41:36.280Z,0
2019-04-26T21:42:25.538Z,0
2019-04-26T21:43:03.962Z,0
2019-04-26T21:43:44.400Z,0
2019-04-26T21:44:24.777Z,0
2019-04-26T21:45:05.167Z,0
2019-04-26T21:45:45.576Z,0
2019-04-26T21:46:28.698Z,0
2019-04-26T21:47:06.405Z,0
2019-04-26T21:47:46.806Z,0
2019-04-26T21:48:27.206Z,0
2019-04-26T21:49:07.603Z,0
2019-04-26T21:49:52.366Z,0
2019-04-26T21:50:29.067Z,0
2019-04-26T21:51:13.014Z,0
2019-04-26T21:51:51.972Z,0
2019-04-26T22:00:36.262Z,0
2019-04-26T22:01:18.925Z,0
2019-04-26T22:01:59.125Z,0
2019-04-26T22:02:37.519Z,0
2019-04-26T22:03:17.056Z,0
2019-04-26T22:12:03.591Z,0
2019-04-26T22:12:43.198Z,0
2019-04-26T22:13:23.114Z,0
2019-04-26T22:17:40.497Z,0
2019-04-26T22:18:21.535Z,0
2019-04-26T22:18:59.101Z,0
2019-04-26T22:19:39.511Z,0
2019-04-26T22:20:19.924Z,0
2019-04-26T22:21:00.373Z,0
2019-04-26T22:21:43.389Z,0
2019-04-26T22:24:26.547Z,0